Terminal Aerodrome Forecast
Issued by NWS

Home | Current Version | Previous Version | Graphics & Text | Print | Product List | Glossary On
Versions: 1 2 3 4 5 6 7 8 9 10 11 12 13 14 15 16 17 18 19
000
FTUS43 KTOP 141916 AAA
TAFMHK
TAF AMD
KMHK 141916Z 1419/1518 18005KT P6SM OVC012
     FM150300 VRB04KT 5SM BR VCSH OVC008
     FM150500 VRB04KT 6SM BR OVC006
     FM151000 35008KT P6SM SKC=

USA.gov is the U.S. government's official web portal to all federal, state and local government web resources and services.